Date,TemperatureHighF,TemperatureAvgF,TemperatureLowF,DewpointHighF,DewpointAvgF,DewpointLowF,HumidityHigh,HumidityAvg,HumidityLow,PressureMaxIn,PressureMinIn,WindSpeedMaxMPH,WindSpeedAvgMPH,GustSpeedMaxMPH,PrecipitationSumIn
2013-1-1,35.2,31.2,27.7,34.7,30.5,26.9,98,97,97,30.44,30.30,0,0,0,0.00
2013-1-2,37.0,31.0,28.0,36.8,30.4,27.5,99,97,95,30.30,30.14,0,0,0,0.00
2013-1-3,38.5,31.5,26.2,33.9,29.5,25.5,98,92,80,30.15,30.03,0,0,0,0.00
2013-1-4,46.8,41.2,34.0,46.5,40.7,32.9,99,98,96,30.26,30.10,0,0,0,0.00
2013-1-5,41.5,39.0,37.4,41.3,38.5,36.9,99,98,97,30.15,30.05,0,0,0,0.00
2013-1-6,43.5,39.9,38.1,42.8,39.3,37.6,99,98,96,30.13,29.94,0,0,0,0.00
2013-1-7,44.6,41.2,38.8,44.3,40.8,38.3,99,99,98,30.11,29.78,0,0,0,0.00
2013-1-8,43.0,41.0,39.9,42.7,40.7,39.6,99,99,99,30.11,29.82,0,0,0,0.00
2013-1-9,47.1,36.6,33.1,45.8,36.0,32.5,99,98,97,29.90,29.63,114,0,114,0.00
2013-1-10,34.9,33.0,30.0,34.3,32.4,29.5,98,98,97,30.05,29.89,0,0,0,0.00
2013-1-11,32.2,28.8,25.3,31.2,28.1,24.3,98,97,96,30.27,30.05,0,0,0,0.00
2013-1-12,31.3,26.2,23.4,30.3,25.2,22.1,97,96,95,30.38,30.25,0,0,0,0.00
2013-1-13,32.4,26.7,21.9,31.1,25.6,20.7,96,96,94,30.43,30.37,0,0,0,0.00
2013-1-14,33.3,31.5,29.3,32.5,30.7,28.3,97,97,96,30.51,30.41,0,0,0,0.00
2013-1-15,37.6,32.5,28.9,36.5,31.8,28.2,98,97,96,30.64,30.51,0,0,0,0.00
2013-1-16,35.6,29.1,25.0,35.1,28.4,24.2,98,97,97,30.62,30.46,0,0,0,0.00
2013-1-17,36.9,29.4,25.3,36.3,28.7,24.6,98,97,97,30.47,30.23,0,0,0,0.00
2013-1-18,33.6,29.3,25.2,33.1,28.6,24.4,98,97,97,30.29,30.20,0,0,0,0.00
2013-1-19,32.4,29.4,26.2,31.6,28.7,25.5,97,97,96,30.33,30.28,0,0,0,0.00
2013-1-20,34.0,28.2,23.2,32.9,27.3,21.9,97,96,95,30.34,30.21,0,0,0,0.00
2013-1-21,32.2,27.4,23.0,31.4,26.5,22.0,97,96,96,30.22,30.07,0,0,0,0.00
2013-1-22,35.2,29.4,23.7,34.4,28.5,22.5,98,96,95,30.11,29.84,0,0,0,0.00
2013-1-23,34.2,33.5,32.7,33.6,33.0,32.2,98,98,98,29.92,29.83,0,0,0,0.00
2013-1-25,41.0,37.0,34.9,40.2,36.3,34.3,98,98,97,29.91,29.88,0,0,0,0.00
2013-1-26,39.0,36.5,34.0,38.8,36.1,33.4,99,99,98,29.98,29.83,0,0,0,0.00
2013-1-27,39.0,36.5,34.9,38.8,36.1,34.3,99,98,97,30.00,29.94,0,0,0,0.00
2013-1-28,36.3,34.4,32.9,36.0,33.9,32.4,99,98,98,30.04,29.94,0,0,0,0.00
2013-1-29,36.1,35.3,34.9,35.9,35.1,34.6,99,99,99,30.10,30.03,0,0,0,0.00
2013-2-1,44.4,39.1,34.9,43.6,38.3,34.1,98,97,97,30.35,30.32,0,0,0,0.00
2013-2-2,39.4,33.9,30.2,38.8,33.3,29.7,98,98,97,30.33,30.20,0,0,0,0.00
2013-2-3,36.7,35.2,34.0,36.1,34.7,33.4,99,98,98,30.24,30.22,0,0,0,0.00
2013-2-7,39.0,34.2,31.3,37.1,32.8,30.0,95,94,93,30.14,30.05,0,0,0,0.00
2013-2-8,35.1,30.3,28.6,34.3,29.3,27.6,97,96,95,30.25,30.14,0,0,0,0.00
2013-2-9,39.0,39.0,39.0,38.2,38.2,38.2,97,97,97,30.23,30.23,0,0,0,0.00
2013-2-10,35.2,32.0,30.7,34.4,31.2,30.0,97,97,97,30.33,30.29,0,0,0,0.00
2013-2-11,42.6,39.2,36.5,41.5,38.4,35.7,98,97,96,30.31,30.27,114,114,114,0.00
2013-2-12,46.6,43.0,39.6,45.8,42.4,39.1,99,98,96,30.35,30.24,114,114,114,0.00
2013-2-13,46.6,43.4,40.6,44.9,42.5,39.8,98,96,94,30.44,30.26,114,114,114,0.00
2013-2-14,40.3,40.1,39.9,39.5,39.3,39.1,97,97,97,30.45,30.45,114,114,114,0.00
2013-2-15,49.5,38.5,33.6,46.3,37.2,32.5,97,95,89,30.47,30.12,0,0,0,0.00
2013-2-16,45.0,41.0,35.2,44.5,40.3,34.4,99,97,96,30.15,30.08,0,0,0,0.00
2013-2-17,42.6,38.1,33.6,41.3,37.2,32.5,98,97,94,30.20,30.07,0,0,0,0.00
2013-2-18,40.1,34.9,31.8,39.6,34.0,31.1,98,97,93,30.07,29.72,0,0,0,0.00
2013-2-19,43.9,35.5,32.2,38.4,33.8,30.4,97,93,81,29.95,29.70,0,0,0,0.00
2013-2-20,42.1,36.1,31.3,39.8,34.8,30.0,97,95,89,29.99,29.94,0,0,0,0.00
2013-2-21,38.8,36.9,35.8,38.0,36.1,34.7,98,97,96,29.99,29.95,0,0,0,0.00
2013-2-22,40.8,34.3,33.4,39.7,33.3,32.4,97,96,95,29.85,29.67,0,0,0,0.00
2013-2-23,36.9,34.6,34.0,36.0,33.9,33.4,98,98,97,30.32,29.85,0,0,0,0.00
2013-2-24,34.9,34.9,34.7,34.1,34.1,33.9,97,97,97,30.32,30.31,0,0,0,0.00
2013-2-25,42.1,40.5,38.8,36.3,35.8,35.1,90,83,77,30.25,30.12,2,0,2,0.00
2013-2-26,40.1,35.7,33.1,38.6,33.9,31.5,96,93,88,30.30,30.16,0,0,0,0.00
2013-2-27,43.9,40.0,38.8,41.1,38.3,36.9,96,94,89,30.25,30.15,0,0,0,0.00
2013-2-28,40.8,39.5,39.0,40.0,38.5,37.7,97,96,95,30.22,30.14,0,0,0,0.00
2013-3-2,48.9,41.2,37.2,43.3,39.0,35.6,95,92,81,30.14,30.05,0,0,0,0.00
2013-3-3,42.4,37.2,31.6,40.6,35.8,30.4,97,95,92,30.26,30.14,0,0,0,0.00
2013-3-4,46.0,33.6,28.6,36.9,30.9,27.3,97,90,69,30.25,29.89,0,0,0,0.00
2013-3-5,47.5,40.1,36.1,39.9,35.7,31.4,88,84,74,29.89,29.68,0,0,0,0.00
2013-3-6,44.1,39.7,36.3,42.2,37.8,33.9,95,93,88,29.86,29.54,0,0,0,0.00
2013-3-7,45.3,38.9,34.0,43.6,37.8,32.6,97,96,94,30.05,29.86,0,0,0,0.00
2013-3-8,46.0,34.4,30.7,41.5,32.7,29.5,96,94,84,30.19,30.02,0,0,0,0.00
2013-3-9,47.1,35.0,30.7,41.6,33.1,29.5,97,93,81,30.44,30.19,0,0,0,0.00
2013-3-10,45.7,39.6,34.3,43.1,37.5,32.5,95,92,84,30.45,30.37,0,0,0,0.00
2013-3-11,45.7,40.0,34.9,42.7,38.2,33.3,96,93,89,30.39,30.12,0,0,0,0.00
2013-3-14,48.0,46.7,46.0,46.9,45.5,44.9,96,96,95,30.11,30.03,0,0,0,0.00
2013-3-15,48.6,47.0,46.0,46.8,46.3,45.0,98,97,93,30.14,30.09,0,0,0,0.00
2013-3-16,48.6,43.1,36.3,46.6,41.4,34.7,96,94,84,30.09,29.84,0,0,0,0.00
2013-3-17,46.2,39.6,35.8,41.3,37.0,33.6,96,91,78,30.14,29.91,1,0,1,0.00
2013-3-18,47.3,39.2,34.5,41.5,36.1,32.4,96,89,65,30.20,30.05,0,0,0,0.00
2013-3-19,47.8,37.8,32.7,41.9,34.9,30.8,94,90,69,30.19,29.56,6,0,6,0.00
2013-3-20,48.2,44.7,42.4,47.2,43.6,40.5,97,96,93,29.56,29.35,2,0,2,0.00
2013-3-21,43.0,39.6,36.3,40.5,37.2,34.2,96,91,87,30.15,30.09,1,0,1,0.00
2013-3-22,43.0,35.2,30.7,39.1,33.1,29.2,95,92,83,30.32,30.14,0,0,0,0.00
2013-3-23,44.6,34.9,29.8,38.5,31.9,28.6,96,89,70,30.35,30.25,0,0,0,0.00
2013-3-24,50.2,35.4,29.7,40.4,31.7,27.9,95,87,59,30.26,30.08,0,0,0,0.00
2013-3-25,54.9,37.8,31.3,39.0,32.5,28.8,92,82,53,30.10,29.90,0,0,0,0.00
2013-3-26,55.0,42.0,35.4,42.0,36.4,32.1,90,81,58,29.96,29.92,0,0,0,0.00
2013-3-27,56.1,45.5,40.1,46.4,40.9,37.3,91,84,69,29.95,29.89,0,0,0,0.00
2013-3-28,57.9,45.4,39.0,47.7,41.5,36.6,92,87,68,30.10,29.95,0,0,0,0.00
2013-3-29,57.4,44.7,39.0,46.5,41.4,37.1,95,88,67,30.21,30.10,0,0,0,0.00
2013-3-30,61.3,44.0,36.7,49.3,39.8,34.3,94,86,64,30.22,30.04,0,0,0,0.00
2013-3-31,65.1,45.9,37.8,49.5,41.1,35.3,94,84,56,30.04,29.87,0,0,0,0.00
2013-4-1,61.5,50.9,40.6,52.5,45.6,37.9,93,83,68,30.11,29.92,0,0,0,0.00
2013-4-2,53.2,50.2,47.8,48.8,46.7,45.0,92,88,84,30.16,30.11,0,0,0,0.00
2013-4-3,63.1,52.4,45.5,51.4,46.8,43.6,93,82,63,30.14,29.91,0,0,0,0.00
2013-4-4,55.6,50.9,46.4,53.3,48.4,43.6,96,91,86,29.92,29.60,0,0,0,0.00
2013-4-5,57.0,50.8,46.9,51.8,48.5,45.0,96,92,80,29.83,29.69,3,0,3,0.00
2013-4-6,53.4,47.2,43.5,48.1,44.1,40.2,95,89,78,29.88,29.66,1,0,1,0.00
2013-4-7,45.0,42.3,40.1,42.5,40.1,38.2,94,92,88,29.84,29.46,0,0,0,0.00
2013-4-8,52.0,44.6,41.2,48.5,42.6,39.6,95,93,86,30.23,29.85,0,0,0,0.00
2013-4-9,54.3,48.0,42.1,48.2,44.4,40.7,96,88,76,30.30,30.14,0,0,0,0.00
2013-4-10,52.5,48.9,45.0,49.5,45.7,42.0,95,89,81,30.20,29.86,0,0,0,0.00
2013-4-11,52.2,46.0,38.3,46.3,41.9,35.3,94,86,72,30.25,30.14,0,0,0,0.00
2013-4-12,47.5,40.3,35.4,42.6,37.7,32.9,95,90,79,30.14,29.64,0,0,0,0.00
2013-4-13,46.6,39.3,36.0,44.7,37.5,34.1,94,93,89,29.94,29.69,0,0,0,0.00
2013-4-14,50.7,42.4,37.2,45.0,39.5,35.6,95,90,73,29.97,29.87,0,0,0,0.00
2013-4-15,55.0,44.3,36.3,45.7,40.3,33.9,95,86,67,30.13,29.90,0,0,0,0.00
2013-4-16,55.2,42.8,31.6,47.4,37.8,29.8,95,83,62,30.35,30.13,0,0,0,0.00
2013-4-17,60.1,46.1,34.2,45.3,38.4,32.0,94,76,52,30.41,30.35,0,0,0,0.00
2013-4-18,49.6,45.7,42.4,45.0,42.0,38.3,95,87,79,30.41,30.17,0,0,0,0.00
2013-4-19,54.7,49.1,46.0,52.4,47.6,44.7,96,94,91,30.17,30.02,0,0,0,0.00
2013-4-20,54.9,48.1,45.1,51.4,46.0,43.3,95,93,84,30.24,30.14,0,0,0,0.00
2013-4-21,49.8,44.8,37.6,46.7,42.7,35.7,95,92,85,30.32,30.18,0,0,0,0.00
2013-4-22,59.5,45.4,32.7,48.1,38.0,31.2,96,77,51,30.47,30.32,0,0,0,0.00
2013-4-23,61.5,47.6,33.4,46.3,38.2,30.5,92,72,43,30.38,30.20,0,0,0,0.00
2013-4-24,67.3,52.0,35.8,48.8,39.5,32.8,92,66,36,30.28,30.03,2,0,2,0.00
2013-4-25,70.3,54.9,38.5,48.1,42.3,34.3,87,65,42,30.10,30.00,3,0,3,0.00
2013-4-26,68.7,55.4,41.5,53.4,46.3,37.9,90,72,55,30.20,30.10,2,0,2,0.00
2013-4-27,55.2,51.1,48.7,46.8,44.1,41.7,91,78,62,30.18,30.10,0,0,0,0.00
2013-4-28,56.5,49.8,45.5,49.6,45.9,43.1,92,87,74,30.17,29.89,0,0,0,0.00
2013-4-29,55.8,47.4,40.8,44.3,37.8,32.8,93,71,48,30.11,29.88,5,0,5,0.00
2013-4-30,51.8,44.0,36.5,45.2,36.9,31.2,87,76,61,30.40,30.11,0,0,0,0.00
2013-5-1,63.7,48.3,31.8,44.1,37.3,28.7,91,68,46,30.53,30.40,0,0,0,0.00
2013-5-2,69.1,53.8,39.0,49.5,41.8,35.2,89,66,43,30.50,30.32,3,0,3,0.00
2013-5-3,69.4,54.7,39.0,53.3,44.8,35.3,90,71,54,30.35,30.19,3,0,3,0.00
2013-5-4,77.0,60.0,42.3,55.5,46.6,39.0,92,65,35,30.20,29.97,3,0,3,0.00
2013-5-5,80.8,64.2,45.3,57.2,49.3,41.1,87,62,38,29.98,29.75,3,0,3,0.00
2013-5-6,85.1,66.8,48.4,58.0,49.8,42.7,82,58,34,29.83,29.73,2,0,2,0.00
2013-5-7,72.3,59.8,49.1,57.5,50.6,44.1,87,72,57,29.96,29.79,3,0,3,0.00
2013-5-8,62.4,55.1,49.3,54.4,50.1,45.8,89,83,74,30.11,29.96,0,0,0,0.00
2013-5-9,71.8,56.8,46.0,59.4,50.7,43.6,92,81,64,30.19,30.08,3,0,3,0.00
2013-5-10,77.7,62.5,45.7,60.7,52.9,42.7,93,73,52,30.16,30.08,3,0,3,0.00
2013-5-11,58.3,54.4,52.9,54.6,50.3,48.8,90,86,79,30.15,30.10,0,0,0,0.00
2013-5-13,50.7,48.0,46.6,46.3,44.5,43.6,90,88,83,30.15,30.09,0,0,0,0.00
2013-5-14,65.5,53.9,46.2,49.7,44.6,41.1,90,72,46,30.19,30.08,2,0,2,0.00
2013-5-15,69.6,55.0,43.0,51.2,45.8,39.0,88,73,49,30.09,29.97,4,0,4,0.00
2013-5-16,68.5,57.8,50.7,57.4,51.6,47.4,92,81,63,29.99,29.83,0,0,0,0.00
2013-5-17,59.7,55.1,51.6,54.9,51.0,48.6,91,86,80,30.01,29.90,0,0,0,0.00
2013-5-18,55.8,52.0,50.5,49.4,47.9,46.6,88,86,78,30.08,30.01,0,0,0,0.00
2013-5-19,63.3,56.1,48.7,54.0,50.7,44.7,92,83,68,30.36,30.31,0,0,0,0.00
2013-5-20,69.6,55.2,42.6,55.7,48.1,39.9,92,78,56,30.31,29.87,4,0,4,0.00
2013-5-21,53.4,49.3,46.6,49.6,45.9,43.9,91,88,80,29.87,29.74,0,0,0,0.00
2013-5-22,51.3,47.4,44.8,47.8,44.8,42.6,93,90,87,29.91,29.81,0,0,0,0.00
2013-5-23,59.5,48.4,40.6,51.3,44.5,38.5,94,87,70,29.98,29.88,4,0,4,0.00
2013-5-24,59.9,51.3,41.2,50.1,46.1,39.0,94,83,67,30.01,29.93,0,0,0,0.00
2013-5-25,64.2,54.6,48.4,51.6,48.1,44.8,92,79,58,30.00,29.94,0,0,0,0.00
2013-5-26,61.3,54.0,47.3,55.3,49.9,44.3,91,86,78,29.96,29.91,0,0,0,0.00
2013-5-27,61.3,55.1,49.8,56.6,52.2,47.5,94,90,82,29.93,29.69,0,0,0,0.00
2013-5-28,60.6,55.2,50.2,55.2,51.3,48.2,94,87,77,29.85,29.74,0,0,0,0.00
2013-5-29,56.1,52.0,48.9,52.6,49.0,46.7,93,90,85,29.93,29.64,0,0,0,0.00
2013-5-30,60.1,52.6,47.1,53.6,48.9,45.2,94,87,75,30.20,29.93,0,0,0,0.00
2013-5-31,65.5,56.2,48.9,53.4,48.5,44.2,91,76,56,30.30,30.20,0,0,0,0.00
2013-6-1,72.1,59.2,47.5,56.8,49.7,43.7,90,73,51,30.21,30.02,0,0,0,0.00
2013-6-2,67.3,57.7,51.4,55.2,50.2,46.6,91,77,57,30.06,30.00,0,0,0,0.00
2013-6-3,72.1,59.7,46.2,58.9,51.3,43.2,91,75,59,30.08,30.02,3,0,3,0.00
2013-6-4,78.4,63.9,47.1,61.9,52.8,44.1,93,69,46,30.10,29.99,4,0,4,0.00
2013-6-5,77.5,63.5,50.2,61.1,53.6,45.6,88,72,52,30.07,30.00,0,0,0,0.00
2013-6-6,79.5,64.2,49.5,62.8,52.3,43.8,92,67,45,30.02,29.98,5,0,5,0.00
2013-6-7,63.3,55.6,52.0,51.9,47.1,44.1,80,73,57,30.13,29.99,2,0,2,0.00
2013-6-8,68.9,58.7,49.6,54.6,48.7,44.3,84,70,57,30.15,30.08,2,0,2,0.00
2013-6-9,68.0,57.4,49.8,52.3,47.1,42.6,85,70,50,30.09,30.00,2,0,2,0.00
2013-6-10,68.2,57.1,44.4,53.9,46.8,40.2,87,70,51,30.02,29.85,3,0,3,0.00
2013-6-11,64.0,55.0,48.7,52.8,48.1,44.6,88,78,62,30.07,29.90,2,0,2,0.00
2013-6-12,68.4,56.8,48.2,53.2,48.4,45.2,90,75,53,30.10,30.07,1,0,1,0.00
2013-6-13,63.9,56.8,51.6,55.6,51.1,46.9,89,81,71,30.17,30.10,0,0,0,0.00
2013-6-14,65.5,57.3,51.4,53.0,49.6,46.9,88,76,62,30.19,30.04,0,0,0,0.00
2013-6-15,76.5,63.1,44.4,59.8,53.0,41.0,92,71,52,30.02,29.88,0,0,0,0.00
2013-6-16,75.0,63.1,51.3,59.6,55.0,48.1,90,76,57,30.05,29.96,0,0,0,0.00
2013-6-17,76.1,63.4,51.1,60.4,53.7,47.6,90,72,50,30.06,29.86,0,0,0,0.00
2013-6-18,72.7,61.5,54.1,56.4,50.6,48.1,90,68,51,29.95,29.84,2,0,2,0.00
2013-6-19,64.2,57.5,54.1,57.0,52.2,48.6,88,83,71,29.97,29.88,0,0,0,0.00
2013-6-20,55.8,53.4,51.3,52.9,50.5,48.8,92,90,85,30.08,29.93,0,0,0,0.00
2013-6-21,66.0,57.4,51.3,57.5,52.8,49.0,94,85,71,30.13,30.07,0,0,0,0.00
2013-6-22,77.0,63.9,48.9,61.0,53.9,46.7,95,72,48,30.10,29.83,0,0,0,0.00
2013-6-23,71.2,62.8,54.5,61.9,57.7,50.8,91,84,71,29.83,29.56,0,0,0,0.00
2013-6-24,66.0,60.7,56.3,59.0,56.7,53.4,93,87,73,29.67,29.55,0,0,0,0.00
2013-6-25,69.6,60.3,54.1,61.5,56.1,51.8,94,86,69,29.84,29.65,0,0,0,0.00
2013-6-26,70.2,61.2,53.4,63.3,57.3,51.1,94,87,73,30.06,29.82,0,0,0,0.00
2013-6-27,69.8,63.1,56.8,64.3,59.8,54.5,93,89,81,30.18,30.02,0,0,0,0.00
2013-6-28,85.8,72.1,58.3,69.5,63.3,56.3,94,76,51,30.17,30.00,2,0,2,0.00
2013-6-29,84.0,71.9,61.9,69.0,63.1,58.5,92,75,56,30.08,29.97,2,0,2,0.00
2013-6-30,91.8,75.9,59.7,73.3,65.2,58.2,99,72,49,29.99,29.83,0,0,0,0.00
2013-7-1,86.2,74.0,61.9,69.2,63.2,57.6,96,71,53,30.00,29.88,0,0,0,0.00
2013-7-2,80.2,70.9,62.4,68.2,59.1,48.1,99,69,43,30.08,30.00,1,0,1,0.00
2013-7-3,95.9,78.9,67.8,96.1,63.9,40.1,99,65,32,30.13,30.02,2,0,2,0.00
2013-7-4,95.7,80.7,73.6,95.4,69.5,49.9,99,72,41,30.09,29.99,0,0,0,0.00
2013-7-5,95.9,79.8,73.9,95.6,69.3,51.1,99,73,40,30.00,29.92,0,0,0,0.00
2013-7-6,95.5,80.4,74.3,95.7,65.9,53.6,99,64,41,29.94,29.83,3,0,3,0.00
2013-7-7,95.9,82.9,78.1,95.6,65.2,39.3,99,59,23,29.92,29.84,1,0,1,0.00
2013-7-8,97.3,89.3,86.2,94.5,65.5,48.4,96,48,27,30.05,30.01,0,0,0,0.00
2013-7-9,110.5,93.1,89.8,87.7,45.6,26.2,50,21,10,30.07,29.99,0,0,0,0.00
2013-7-15,76.5,66.1,58.8,55.3,48.5,42.6,55,53,48,29.92,29.87,0,0,0,0.00
2013-7-16,104.7,71.3,52.9,87.5,54.4,37.1,59,55,55,29.89,29.77,0,0,0,0.00
2013-7-17,74.8,66.3,61.3,59.1,50.3,45.5,58,57,55,30.15,29.85,0,0,0,0.00
2013-7-18,77.2,66.2,57.0,61.2,50.9,41.9,58,58,57,30.20,30.09,0,0,0,0.00
2013-7-19,79.0,64.9,52.7,63.5,49.9,38.3,59,58,58,30.14,30.01,0,0,0,0.00
2013-7-20,73.9,62.2,54.0,59.2,47.9,40.0,60,60,59,30.06,29.93,0,0,0,0.00
2013-7-21,73.9,62.2,53.4,59.6,48.4,39.9,61,61,60,29.95,29.87,0,0,0,0.00
2013-7-22,76.3,64.2,55.9,62.3,50.6,42.7,62,61,61,30.03,29.90,0,0,0,0.00
2013-7-23,83.5,68.0,54.1,69.1,54.5,41.2,62,62,61,30.04,29.93,0,0,0,0.00
2013-7-24,83.7,68.5,53.8,69.1,54.8,41.1,63,62,60,30.02,29.97,0,0,0,0.00
2013-7-25,83.1,67.4,51.3,68.3,53.6,38.6,62,61,60,30.07,30.01,0,0,0,0.00
2013-7-26,83.1,67.0,51.6,68.3,53.0,38.4,61,61,60,30.12,30.06,0,0,0,0.00
2013-7-27,78.4,64.8,50.5,63.5,50.6,37.5,61,60,59,30.12,29.96,0,0,0,0.00
2013-7-28,75.4,63.6,51.3,60.6,49.5,37.8,61,60,59,29.98,29.92,0,0,0,0.00
2013-7-29,75.6,64.7,57.6,61.0,50.8,44.2,62,61,60,29.98,29.92,0,0,0,0.00
2013-7-30,78.6,66.3,54.9,64.5,52.5,41.6,62,61,60,30.10,29.97,0,0,0,0.00
2013-7-31,73.8,62.4,54.1,59.7,49.1,41.0,63,62,61,30.09,29.94,0,0,0,0.00
2013-8-1,64.2,60.9,58.1,51.3,48.1,45.5,63,63,62,30.03,29.99,0,0,0,0.00
2013-8-2,60.6,59.3,57.6,48.4,47.0,45.2,65,64,63,30.10,30.02,0,0,0,0.00
2013-8-3,73.2,64.8,58.5,60.7,52.7,46.3,66,65,64,30.10,30.02,0,0,0,0.00
2013-8-4,80.8,67.1,57.9,68.3,55.1,46.2,66,66,65,30.04,29.91,0,0,0,0.00
2013-8-5,83.5,68.8,55.8,70.4,56.8,44.5,66,66,65,29.98,29.90,0,0,0,0.00
2013-8-6,84.0,68.2,53.8,71.0,56.0,42.2,66,65,64,29.97,29.89,0,0,0,0.00
2013-8-7,84.0,68.6,54.3,70.5,56.1,42.8,65,64,64,29.98,29.91,0,0,0,0.00
2013-8-8,81.9,68.3,57.7,68.4,55.7,45.6,65,64,63,30.00,29.92,0,0,0,0.00
2013-8-9,82.8,68.1,55.0,69.3,55.4,43.0,65,64,63,29.94,29.81,0,0,0,0.00
2013-8-10,81.7,69.8,62.1,68.3,57.1,49.6,65,64,63,29.99,29.82,0,0,0,0.00
2013-8-11,72.5,65.0,58.6,60.0,53.0,46.9,66,65,64,30.04,29.96,0,0,0,0.00
2013-8-12,78.3,66.0,57.9,65.5,54.0,46.2,66,65,65,30.04,29.97,0,0,0,0.00
2013-8-13,81.0,67.5,56.5,68.1,55.4,45.2,66,65,65,30.07,29.90,0,0,0,0.00
2013-8-14,60.6,59.0,57.9,49.2,47.3,46.2,66,65,65,29.92,29.90,0,0,0,0.00
2013-8-15,70.7,66.0,63.1,59.0,54.4,51.7,67,66,65,29.96,29.90,0,0,0,0.00
2013-8-16,83.1,70.8,63.0,71.0,59.2,51.8,68,67,66,29.98,29.91,0,0,0,0.00
2013-8-17,75.7,66.8,60.6,64.0,55.5,49.7,68,67,67,30.04,29.97,0,0,0,0.00
2013-8-18,78.4,65.9,58.6,66.5,54.8,47.9,68,67,67,30.09,30.04,0,0,0,0.00
2013-8-19,77.7,65.9,57.9,65.9,54.8,47.4,68,67,67,30.09,30.03,0,0,0,0.00
2013-8-20,77.4,64.1,52.9,65.4,52.9,42.2,68,67,66,30.13,30.03,0,0,0,0.00
2013-8-21,81.0,64.0,49.8,69.0,52.7,39.3,67,67,66,30.07,29.91,0,0,0,0.00
2013-8-22,83.3,67.2,54.1,70.5,55.5,43.0,67,66,66,29.93,29.77,0,0,0,0.00
2013-8-23,74.3,66.0,59.5,62.2,54.4,48.2,67,66,66,29.87,29.80,0,0,0,0.00
2013-8-24,73.0,63.4,56.8,61.4,52.1,46.0,67,67,66,29.89,29.83,0,0,0,0.00
2013-8-25,74.7,61.2,50.9,62.8,50.2,40.3,68,67,67,29.92,29.83,0,0,0,0.00
2013-8-26,75.7,64.0,57.9,63.8,53.1,47.0,69,68,67,29.93,29.82,0,0,0,0.00
2013-8-27,79.0,67.5,59.2,67.1,56.5,48.6,69,68,67,29.93,29.77,0,0,0,0.00
2013-8-28,78.4,67.2,59.9,67.0,56.4,49.4,69,68,68,29.87,29.79,0,0,0,0.00
2013-8-29,70.7,65.2,63.1,60.0,54.8,52.8,70,69,68,29.99,29.83,0,0,0,0.00
2013-8-30,78.1,66.7,58.8,67.5,56.5,48.7,71,70,69,30.12,29.99,0,0,0,0.00
2013-9-6,70.3,63.3,59.5,60.6,54.2,50.6,72,72,71,30.07,29.91,0,0,0,0.00
2013-9-7,72.7,64.7,59.9,63.3,55.7,51.3,73,72,72,30.08,29.98,0,0,0,0.00
2013-9-8,76.3,64.4,55.8,67.2,55.6,47.4,73,73,72,30.07,30.00,0,0,0,0.00
2013-9-9,76.6,64.7,56.5,67.5,55.9,48.1,73,73,72,30.03,29.95,0,0,0,0.00
2013-9-10,77.2,64.3,57.0,68.1,55.7,48.5,74,73,73,29.96,29.86,0,0,0,0.00
2013-9-11,87.1,69.2,56.5,77.6,60.4,48.1,74,73,72,29.91,29.85,0,0,0,0.00
2013-9-12,79.0,68.5,57.9,69.2,59.4,49.3,73,73,72,29.97,29.87,0,0,0,0.00
2013-9-13,64.9,61.3,56.7,56.1,52.6,48.1,73,73,72,29.94,29.85,0,0,0,0.00
2013-9-14,67.1,63.5,61.0,58.4,54.8,52.3,74,73,73,29.86,29.71,0,0,0,0.00
2013-9-15,65.8,62.2,59.9,57.3,53.9,51.6,75,74,74,29.79,29.68,0,0,0,0.00
2013-9-16,63.1,60.2,57.0,55.0,52.2,49.1,75,75,74,29.91,29.78,0,0,0,0.00
2013-9-17,61.0,57.4,54.9,53.2,49.6,47.0,76,75,75,29.91,29.83,0,0,0,0.00
2013-9-18,65.5,57.3,51.6,57.7,49.7,44.0,76,76,75,30.04,29.90,0,0,0,0.00
2013-9-19,74.8,58.0,45.7,66.6,50.4,38.6,76,76,75,30.02,29.73,0,0,0,0.00
2013-9-20,74.8,60.0,48.9,66.4,52.1,41.3,76,75,74,29.74,29.55,0,0,0,0.00
2013-9-21,69.3,60.8,55.8,60.6,52.7,47.9,75,75,74,29.68,29.61,0,0,0,0.00
2013-9-22,58.5,56.6,54.1,50.5,48.7,46.4,75,75,74,29.69,29.55,0,0,0,0.00
2013-9-23,58.3,55.2,50.9,50.4,47.3,43.3,75,75,75,29.93,29.69,0,0,0,0.00
2013-9-24,59.4,52.9,49.6,51.4,45.3,42.0,76,75,75,29.93,29.80,0,0,0,0.00
2013-9-25,57.0,52.1,46.6,49.3,44.5,39.4,76,75,75,29.99,29.82,0,0,0,0.00
2013-9-26,63.7,51.3,43.2,55.9,43.9,36.1,76,76,75,30.09,29.99,0,0,0,0.00
2013-9-27,52.9,50.6,45.7,45.5,43.3,38.6,76,76,76,30.08,29.81,0,0,0,0.00
2013-9-28,58.1,53.9,50.7,50.5,46.5,43.4,77,76,76,29.81,29.32,0,0,0,0.00
2013-9-29,54.3,51.5,49.8,47.2,44.3,42.9,77,76,76,29.53,29.14,0,0,0,0.00
2013-9-30,57.0,51.2,47.8,49.5,44.2,40.9,77,77,76,29.87,29.37,0,0,0,0.00
2013-10-1,57.0,50.7,47.7,49.8,43.7,40.7,77,77,76,30.07,29.87,0,0,0,0.00
2013-10-2,54.1,50.4,48.0,47.1,43.4,41.1,77,77,77,30.13,30.02,0,0,0,0.00
2013-10-3,58.1,51.1,46.8,50.9,44.1,39.8,77,77,76,30.41,30.13,0,0,0,0.00
2013-10-4,62.8,50.7,40.8,55.4,43.8,34.1,78,77,77,30.43,30.31,0,0,0,0.00
2013-10-5,67.8,53.5,44.6,60.4,46.5,37.8,77,77,76,30.32,30.10,0,0,0,0.00
2013-10-6,71.6,56.2,45.1,64.0,49.0,38.4,77,77,76,30.10,29.85,0,0,0,0.00
2013-10-7,55.9,52.4,50.2,48.4,45.0,42.9,77,76,76,29.97,29.84,0,0,0,0.00
2013-10-8,57.4,50.2,42.4,49.5,43.0,35.4,77,76,76,30.04,29.91,0,0,0,0.00
2013-10-9,57.6,46.1,37.6,50.0,39.0,30.7,77,76,76,30.09,29.92,0,0,0,0.00
2013-10-10,46.8,46.4,45.5,39.6,39.2,38.2,76,76,76,29.94,29.89,0,0,0,0.00
2013-10-14,57.4,45.8,37.6,50.3,39.0,31.1,77,77,76,30.37,30.32,0,0,0,0.00
2013-10-15,59.5,47.7,39.4,52.4,40.8,32.5,77,77,76,30.35,30.14,0,0,0,0.00
2013-10-16,52.2,47.9,43.2,45.3,41.0,36.2,77,77,76,30.16,30.11,0,0,0,0.00
2013-10-17,57.4,49.7,45.7,50.3,42.8,38.6,77,77,76,30.24,30.16,0,0,0,0.00
2013-10-18,58.8,46.9,38.1,51.7,40.1,31.2,77,77,76,30.20,30.11,0,0,0,0.00
2013-10-19,50.5,44.9,39.6,43.6,38.0,32.7,77,77,76,30.15,30.11,0,0,0,0.00
2013-10-20,48.7,46.9,44.2,41.8,40.0,37.5,77,77,76,30.17,30.11,0,0,0,0.00
2013-10-21,50.4,47.4,44.4,43.4,40.5,37.6,77,77,77,30.13,30.06,0,0,0,0.00
2013-10-22,53.1,48.5,44.4,46.2,41.6,37.6,78,77,77,30.08,29.99,0,0,0,0.00
2013-10-23,59.0,47.8,38.5,52.0,41.1,31.9,78,77,77,30.01,29.94,0,0,0,0.00
2013-10-24,55.2,46.0,38.3,48.4,39.3,31.7,78,77,77,30.09,29.97,0,0,0,0.00
2013-10-25,51.4,48.3,46.6,44.6,41.6,39.8,78,77,77,30.28,30.08,0,0,0,0.00
2013-10-26,51.8,48.8,46.8,45.0,42.2,40.3,78,78,77,30.29,30.14,0,0,0,0.00
2013-10-27,54.0,48.2,42.3,47.3,41.7,35.5,78,78,77,30.15,29.85,0,0,0,0.00
2013-10-28,57.0,45.4,39.4,50.2,38.9,33.1,79,78,77,29.92,29.83,0,0,0,0.00
2013-10-29,52.7,41.3,33.8,46.1,35.0,27.6,79,78,78,29.99,29.91,0,0,0,0.00
2013-10-30,54.1,44.5,34.9,47.4,38.1,28.7,79,78,78,30.10,29.99,0,0,0,0.00
2013-10-31,51.6,48.9,46.6,45.0,42.4,40.1,78,78,78,30.22,30.06,0,0,0,0.00
2013-11-1,57.4,52.1,48.7,50.5,45.5,42.1,79,78,78,30.23,29.80,0,0,0,0.00
2013-11-2,50.9,47.4,42.8,44.3,41.0,36.2,79,78,78,29.84,29.44,0,0,0,0.00
2013-11-3,47.3,41.0,34.3,41.1,34.8,28.1,79,78,78,30.07,29.84,0,0,0,0.00
2013-11-4,44.4,37.9,32.2,38.3,31.7,26.1,79,78,78,30.15,30.02,0,0,0,0.00
2013-11-5,49.6,44.9,40.8,43.0,38.6,34.4,79,78,78,30.22,29.97,0,0,0,0.00
2013-11-6,49.8,45.5,40.6,43.5,39.3,34.4,79,79,78,30.27,29.98,0,0,0,0.00
2013-11-7,48.9,47.3,46.2,42.6,41.1,40.1,79,79,79,29.97,29.66,0,0,0,0.00
2013-11-8,54.1,47.2,43.2,47.8,41.0,37.1,79,79,78,30.12,29.93,0,0,0,0.00
2013-11-9,50.2,44.6,38.3,43.9,38.4,32.4,79,79,79,30.12,30.02,0,0,0,0.00
2013-11-10,49.1,46.3,44.2,42.8,40.1,38.1,79,79,79,30.11,30.05,0,0,0,0.00
2013-11-11,52.2,45.8,39.4,46.0,39.6,33.4,80,79,79,30.12,29.96,0,0,0,0.00
2013-11-12,55.6,49.8,44.1,49.3,43.7,38.0,80,79,79,30.32,29.98,0,0,0,0.00
2013-11-13,51.4,51.1,50.7,45.5,44.9,44.4,80,79,79,30.33,30.31,0,0,0,0.00
2013-11-14,43.2,42.7,42.6,37.4,37.0,36.5,80,80,79,30.05,30.01,0,0,0,0.00
2013-11-15,45.1,43.8,42.6,39.4,38.0,36.9,80,80,80,30.02,29.30,0,0,0,0.00
2013-11-16,45.7,41.4,37.4,39.9,35.7,31.8,80,80,79,29.73,29.32,0,0,0,0.00
2013-11-17,47.1,43.9,37.6,41.3,38.2,32.0,80,80,79,29.86,29.72,0,0,0,0.00
2013-11-18,49.1,47.8,46.0,43.2,41.9,40.3,81,80,80,29.85,29.51,0,0,0,0.00
2013-11-19,50.2,43.2,35.4,44.2,37.4,29.5,80,80,79,30.02,29.49,0,0,0,0.00
2013-11-20,39.7,32.8,29.1,34.1,27.3,23.7,80,80,79,30.45,30.02,0,0,0,0.00
2013-11-21,37.9,30.6,26.1,32.2,25.1,20.7,80,80,79,30.61,30.45,0,0,0,0.00
2013-11-22,39.4,31.3,26.1,33.8,25.8,20.4,80,80,79,30.59,30.41,0,0,0,0.00
2013-11-23,41.9,33.9,28.6,36.3,28.4,23.2,81,80,80,30.40,30.15,0,0,0,0.00
2013-11-24,43.3,35.3,30.7,37.4,29.7,25.3,81,80,80,30.21,30.12,0,0,0,0.00
2013-11-25,46.4,37.9,32.5,40.6,32.3,27.1,81,80,80,30.27,30.20,0,0,0,0.00
2013-11-26,47.5,39.5,31.6,41.6,33.8,26.2,81,80,80,30.22,30.06,0,0,0,0.00
2013-11-27,48.7,42.7,37.0,42.8,36.9,31.3,80,80,80,30.06,29.91,0,0,0,0.00
2013-11-28,47.7,39.6,34.5,41.9,34.0,28.9,81,80,80,30.13,29.98,0,0,0,0.00
2013-11-29,46.8,43.2,39.0,41.0,37.5,33.4,80,80,80,30.27,30.12,0,0,0,0.00
2013-11-30,47.8,45.9,44.2,41.9,40.1,38.5,80,80,80,30.28,30.04,0,0,0,0.00
2013-12-1,49.8,47.7,39.7,43.9,41.9,34.1,81,80,80,30.04,29.71,0,0,0,0.00
2013-12-2,39.9,36.9,34.3,34.3,31.3,28.8,81,80,80,30.00,29.77,0,0,0,0.00
2013-12-3,35.8,33.1,30.4,30.2,27.6,24.7,80,80,79,30.26,30.00,0,0,0,0.00
2013-12-4,33.1,29.1,26.2,27.4,23.7,20.7,80,80,79,30.29,30.24,0,0,0,0.00
2013-12-5,33.3,27.3,23.7,27.7,22.0,18.5,80,80,79,30.27,30.14,0,0,0,0.00
2013-12-6,29.5,23.6,18.7,24.1,18.2,13.5,80,80,79,30.19,30.10,0,0,0,0.00
2013-12-7,26.2,19.6,15.4,20.9,14.3,10.1,80,80,79,30.36,30.19,0,0,0,0.00
2013-12-8,28.9,22.1,15.6,23.5,16.8,10.3,80,80,79,30.51,30.36,0,0,0,0.00
2013-12-9,31.3,26.8,18.3,25.9,21.5,13.1,80,80,80,30.53,30.42,0,0,0,0.00
2013-12-10,35.8,32.9,30.4,30.2,27.4,25.0,80,80,80,30.43,30.36,0,0,0,0.00
2013-12-11,38.1,32.8,28.9,32.5,27.3,23.5,80,80,80,30.37,30.11,0,0,0,0.00
2013-12-12,32.7,32.5,32.2,27.2,27.1,26.8,80,80,80,30.11,30.06,0,0,0,0.00
2013-12-13,44.2,42.9,39.7,38.5,37.2,34.1,81,80,80,30.37,30.24,0,0,0,0.00
2013-12-14,45.3,43.4,40.3,39.7,37.7,34.6,81,80,80,30.38,30.27,0,0,0,0.00
2013-12-15,47.1,45.7,43.0,41.3,40.0,37.5,81,80,80,30.41,30.28,0,0,0,0.00
2013-12-16,44.4,39.6,33.6,38.7,34.0,28.1,81,80,80,30.45,30.21,0,0,0,0.00
2013-12-17,40.6,36.1,32.2,35.0,30.7,26.8,81,80,80,30.22,30.07,0,0,0,0.00
2013-12-18,42.6,38.1,30.2,37.2,32.6,24.6,81,80,80,30.10,29.97,0,0,0,0.00
2013-12-19,35.2,30.5,26.4,29.7,25.2,21.0,81,80,80,30.29,30.09,0,0,0,0.00
2013-12-20,34.9,33.0,30.7,29.3,27.6,25.5,81,80,80,30.15,29.67,0,0,0,0.00
2013-12-21,40.6,36.7,34.3,34.9,31.2,28.8,81,80,80,30.10,29.79,0,0,0,0.00
2013-12-22,45.7,42.2,37.6,40.2,36.7,32.0,81,81,80,30.25,30.15,0,0,0,0.00
2013-12-23,47.8,45.0,40.5,42.2,39.6,35.0,81,81,81,30.46,30.08,0,0,0,0.00
2013-12-24,43.3,38.9,31.8,37.9,33.5,26.7,81,81,81,30.57,30.46,0,0,0,0.00
2013-12-25,39.9,34.4,30.0,34.4,29.2,24.9,81,81,81,30.49,30.34,0,0,0,0.00
2013-12-26,43.2,37.8,34.9,37.7,32.5,29.6,82,81,81,30.35,30.15,0,0,0,0.00
2013-12-27,42.4,38.1,33.1,37.0,32.8,27.9,82,81,81,30.32,30.05,0,0,0,0.00
2013-12-28,45.7,42.0,39.7,40.2,36.6,34.4,82,81,81,30.47,30.31,0,0,0,0.00
2013-12-29,41.2,38.7,36.3,35.7,33.4,31.0,82,81,81,30.43,30.26,0,0,0,0.00
2013-12-30,42.4,39.2,35.4,36.6,33.9,30.1,82,81,81,30.27,30.06,0,0,0,0.00
2013-12-31,45.1,42.8,40.3,39.8,37.5,34.9,82,81,81,30.33,30.14,0,0,0,0.00
2014-1-1,43.3,39.1,34.0,37.9,33.9,28.7,82,82,81,30.37,30.19,0,0,0,0.00
2014-1-2,45.3,42.9,40.1,40.2,37.7,34.7,82,82,81,30.19,29.85,0,0,0,0.00